Time;durP1;ratioP1;P1;durP2;ratioP2;P2;SDS_P1;SDS_P2;PMS_P1;PMS_P2;Temp;Humidity;BMP_temperature;BMP_pressure;BME280_temperature;BME280_humidity;BME280_pressure;Samples;Min_cycle;Max_cycle;Signal;HPM_P1;HPM_P2
2021/10/30 00:00:35;;;;;;;7.93;7.20;;;14.90;94.20;;;;;;4996577;28;20172;-67
2021/10/30 00:03:00;;;;;;;8.37;7.57;;;14.90;94.10;;;;;;5013751;28;20267;-67
2021/10/30 00:05:26;;;;;;;8.30;6.97;;;14.90;94.30;;;;;;5013443;28;20523;-67
2021/10/30 00:07:52;;;;;;;7.73;7.03;;;15.00;94.50;;;;;;5013031;28;20189;-67
2021/10/30 00:10:18;;;;;;;7.10;6.40;;;15.10;94.10;;;;;;5012183;28;20260;-67
2021/10/30 00:12:44;;;;;;;8.10;7.40;;;15.20;94.10;;;;;;5013418;28;20260;-67
2021/10/30 00:15:11;;;;;;;7.70;7.03;;;15.30;93.80;;;;;;5013727;28;20192;-67
2021/10/30 00:17:36;;;;;;;7.57;6.77;;;15.30;93.70;;;;;;5013309;28;20463;-72
2021/10/30 00:20:03;;;;;;;8.17;7.30;;;15.30;93.80;;;;;;5012942;28;20442;-67
2021/10/30 00:22:29;;;;;;;7.80;7.10;;;15.40;93.70;;;;;;5013004;28;20552;-67
2021/10/30 00:24:55;;;;;;;7.60;6.60;;;15.40;93.40;;;;;;4994641;28;20421;-69
2021/10/30 00:27:21;;;;;;;7.37;6.67;;;15.40;93.40;;;;;;4998827;28;20197;-67
2021/10/30 00:29:47;;;;;;;8.87;6.73;;;15.50;93.40;;;;;;5013016;28;20746;-67
2021/10/30 00:32:13;;;;;;;9.80;7.07;;;15.60;93.30;;;;;;5013395;28;20256;-67
2021/10/30 00:34:38;;;;;;;7.63;6.93;;;15.70;93.30;;;;;;5012569;28;20538;-68
2021/10/30 00:37:04;;;;;;;7.27;6.67;;;15.70;93.20;;;;;;5012510;28;20182;-67
2021/10/30 00:39:30;;;;;;;8.43;7.50;;;15.80;93.00;;;;;;5013182;28;20517;-67
2021/10/30 00:41:56;;;;;;;8.67;7.57;;;15.90;92.80;;;;;;5012310;28;20459;-67
2021/10/30 00:44:22;;;;;;;7.87;7.20;;;15.80;92.60;;;;;;5013269;28;20417;-67
2021/10/30 00:46:50;;;;;;;7.67;7.07;;;15.80;92.70;;;;;;5012636;28;20217;-67
2021/10/30 00:49:18;;;;;;;7.40;6.70;;;15.90;92.60;;;;;;5012958;28;20425;-67
2021/10/30 00:51:47;;;;;;;7.93;7.13;;;15.90;92.60;;;;;;5011841;28;20789;-67
2021/10/30 00:54:14;;;;;;;8.30;7.50;;;16.00;92.90;;;;;;5012353;28;20425;-67
2021/10/30 00:56:42;;;;;;;7.13;6.57;;;16.10;93.00;;;;;;5012427;28;20512;-68
2021/10/30 00:59:12;;;;;;;7.37;6.73;;;16.00;93.20;;;;;;5013199;28;20507;-67
2021/10/30 01:01:42;;;;;;;8.90;6.97;;;16.00;93.30;;;;;;5013065;28;20444;-67
2021/10/30 01:04:08;;;;;;;7.33;6.70;;;16.00;93.30;;;;;;5012575;28;20401;-67
2021/10/30 01:06:36;;;;;;;7.50;6.83;;;16.00;93.20;;;;;;5012574;28;20418;-67
2021/10/30 01:09:04;;;;;;;6.70;6.20;;;15.90;92.70;;;;;;5012331;28;20464;-67
2021/10/30 01:11:30;;;;;;;7.30;6.70;;;15.90;92.70;;;;;;4995148;28;20425;-67
2021/10/30 01:13:56;;;;;;;6.67;6.10;;;16.00;92.90;;;;;;5012437;28;20446;-67
2021/10/30 01:16:22;;;;;;;6.70;6.10;;;15.90;93.10;;;;;;5012606;28;20452;-67
2021/10/30 01:18:48;;;;;;;6.97;6.30;;;15.90;93.40;;;;;;5011785;28;20453;-67
2021/10/30 01:21:23;;;;;;;7.33;6.70;;;15.90;93.40;;;;;;5012846;28;20420;-67
2021/10/30 01:23:49;;;;;;;7.10;6.40;;;15.90;93.60;;;;;;5012339;28;20515;-67
2021/10/30 01:26:16;;;;;;;8.73;7.00;;;15.80;93.30;;;;;;5011872;28;20433;-67
2021/10/30 01:28:41;;;;;;;6.87;6.10;;;15.80;93.30;;;;;;5012253;28;20191;-68
2021/10/30 01:31:07;;;;;;;6.50;5.70;;;15.80;93.40;;;;;;5012532;28;20472;-67
2021/10/30 01:33:33;;;;;;;6.50;5.90;;;15.80;93.30;;;;;;5012967;28;20187;-67
2021/10/30 01:36:06;;;;;;;6.23;5.73;;;15.70;93.10;;;;;;5012142;28;20227;-67
2021/10/30 01:38:32;;;;;;;7.07;6.37;;;15.70;93.20;;;;;;5012676;28;20437;-67
2021/10/30 01:40:58;;;;;;;6.20;5.70;;;15.80;93.20;;;;;;5011109;28;20516;-67
2021/10/30 01:43:23;;;;;;;6.93;6.33;;;15.80;93.00;;;;;;5012230;28;20283;-67
2021/10/30 01:45:49;;;;;;;8.73;6.83;;;15.80;93.20;;;;;;4994547;28;20191;-66
2021/10/30 01:48:16;;;;;;;7.00;6.40;;;15.80;93.30;;;;;;5012375;28;20185;-66
2021/10/30 01:50:42;;;;;;;6.40;5.87;;;15.50;93.20;;;;;;5012330;28;20412;-67
2021/10/30 01:53:08;;;;;;;7.50;6.73;;;15.60;93.30;;;;;;5011608;28;20442;-68
2021/10/30 01:55:39;;;;;;;6.40;5.80;;;15.40;93.20;;;;;;5012020;28;20532;-67
2021/10/30 01:58:06;;;;;;;6.70;6.10;;;15.40;93.50;;;;;;5011887;28;20483;-67
2021/10/30 02:00:34;;;;;;;6.77;6.03;;;15.50;93.30;;;;;;5011377;28;20411;-67
2021/10/30 02:03:00;;;;;;;6.50;5.73;;;15.50;93.10;;;;;;5011897;28;20442;-67
2021/10/30 02:05:25;;;;;;;5.67;5.27;;;15.50;93.30;;;;;;5012518;28;20933;-67
2021/10/30 02:07:51;;;;;;;5.97;5.50;;;15.40;93.20;;;;;;5011766;28;20212;-67
2021/10/30 02:10:17;;;;;;;7.27;5.50;;;15.50;93.20;;;;;;5011979;28;20182;-67
2021/10/30 02:12:43;;;;;;;6.50;5.90;;;15.50;93.00;;;;;;5012233;28;20178;-73
2021/10/30 02:15:10;;;;;;;6.20;5.80;;;15.50;93.00;;;;;;5012734;28;20476;-67
2021/10/30 02:17:36;;;;;;;9.20;6.30;;;15.60;92.90;;;;;;5015894;28;20460;-67
2021/10/30 02:20:04;;;;;;;6.03;5.53;;;15.40;93.10;;;;;;5015342;28;20456;-67
2021/10/30 02:22:30;;;;;;;6.30;5.70;;;15.40;93.10;;;;;;5016139;28;20438;-67
2021/10/30 02:24:55;;;;;;;5.80;5.30;;;15.40;93.20;;;;;;4997507;28;20456;-67
2021/10/30 02:27:21;;;;;;;6.63;5.97;;;15.30;93.20;;;;;;5015874;28;20184;-68
2021/10/30 02:29:47;;;;;;;6.77;6.17;;;15.30;93.30;;;;;;5015260;28;20174;-68
2021/10/30 02:32:13;;;;;;;6.13;5.60;;;15.30;93.30;;;;;;5015868;28;20185;-67
2021/10/30 02:34:40;;;;;;;7.70;5.90;;;15.30;93.00;;;;;;5015654;28;20287;-67
2021/10/30 02:37:07;;;;;;;6.17;5.57;;;15.10;93.40;;;;;;5015052;28;20414;-67
2021/10/30 02:39:33;;;;;;;8.47;6.87;;;15.20;93.70;;;;;;5015741;28;20763;-67
2021/10/30 02:41:58;;;;;;;6.80;6.30;;;15.20;93.50;;;;;;5014585;28;20542;-67
2021/10/30 02:44:24;;;;;;;6.37;5.87;;;15.20;93.70;;;;;;5015546;28;20552;-67
2021/10/30 02:46:51;;;;;;;5.67;5.27;;;15.20;93.60;;;;;;5014858;28;20268;-67
2021/10/30 02:49:17;;;;;;;7.07;6.37;;;15.20;93.60;;;;;;4998111;28;20404;-67
2021/10/30 02:51:43;;;;;;;6.37;5.67;;;15.20;93.80;;;;;;5015384;28;20403;-67
2021/10/30 02:54:09;;;;;;;6.10;5.63;;;15.10;93.80;;;;;;5013595;28;20964;-67
2021/10/30 02:56:35;;;;;;;6.13;5.67;;;15.20;93.90;;;;;;5015272;28;20176;-67
2021/10/30 02:59:00;;;;;;;6.40;5.93;;;15.10;93.60;;;;;;4996754;28;20491;-67
2021/10/30 03:01:27;;;;;;;7.17;6.50;;;15.10;93.60;;;;;;5015233;28;20407;-67
2021/10/30 03:03:53;;;;;;;6.40;5.70;;;15.00;93.70;;;;;;5014527;28;20176;-67
2021/10/30 03:06:21;;;;;;;6.53;5.93;;;15.00;94.00;;;;;;5015112;28;20542;-67
2021/10/30 03:08:48;;;;;;;5.97;5.57;;;15.10;93.90;;;;;;5014850;28;20215;-68
2021/10/30 03:11:14;;;;;;;6.03;5.50;;;15.20;93.70;;;;;;5014693;28;20779;-67
2021/10/30 03:13:40;;;;;;;5.70;5.30;;;15.30;93.50;;;;;;5014717;28;20417;-67
2021/10/30 03:16:06;;;;;;;5.97;5.50;;;15.20;93.50;;;;;;5014362;28;20412;-67
2021/10/30 03:18:31;;;;;;;6.10;5.60;;;15.30;93.50;;;;;;5014377;28;20201;-67
2021/10/30 03:20:57;;;;;;;6.63;6.13;;;15.30;93.30;;;;;;5014271;28;20181;-67
2021/10/30 03:23:22;;;;;;;6.07;5.57;;;15.30;93.40;;;;;;5014767;28;20181;-67
2021/10/30 03:25:48;;;;;;;6.87;6.33;;;15.20;93.50;;;;;;5014098;28;20217;-68
2021/10/30 03:28:14;;;;;;;6.07;5.57;;;15.30;93.50;;;;;;5013744;28;20626;-67
2021/10/30 03:30:43;;;;;;;6.13;5.60;;;15.30;93.40;;;;;;5014682;28;20182;-67
2021/10/30 03:33:09;;;;;;;6.60;6.10;;;15.20;93.50;;;;;;5013975;28;20183;-67
2021/10/30 03:35:35;;;;;;;6.40;5.80;;;15.20;93.50;;;;;;5014158;28;20406;-67
2021/10/30 03:38:01;;;;;;;6.40;5.80;;;15.20;93.40;;;;;;5013613;28;20456;-67
2021/10/30 03:40:27;;;;;;;6.90;6.30;;;15.30;93.60;;;;;;5014555;28;20216;-67
2021/10/30 03:42:52;;;;;;;8.30;6.10;;;15.30;93.60;;;;;;4995766;28;20691;-67
2021/10/30 03:45:18;;;;;;;6.37;5.87;;;15.40;93.40;;;;;;5014096;28;20191;-67
2021/10/30 03:47:44;;;;;;;7.13;6.53;;;15.40;93.30;;;;;;5014070;28;20185;-67
2021/10/30 03:50:10;;;;;;;6.63;6.10;;;15.40;93.30;;;;;;5013695;28;20530;-67
2021/10/30 03:52:36;;;;;;;6.20;5.70;;;15.50;93.10;;;;;;5014312;28;20526;-67
2021/10/30 03:55:02;;;;;;;6.60;6.10;;;15.40;93.30;;;;;;5013429;28;20415;-67
2021/10/30 03:57:28;;;;;;;7.43;6.07;;;15.40;93.20;;;;;;4996562;28;20295;-68
2021/10/30 03:59:54;;;;;;;7.57;6.40;;;15.40;93.20;;;;;;5013476;28;20483;-68
2021/10/30 04:02:20;;;;;;;6.77;6.27;;;15.50;93.70;;;;;;5014072;28;20266;-68
2021/10/30 04:04:45;;;;;;;6.80;6.20;;;15.40;93.30;;;;;;5014027;28;20182;-68
2021/10/30 04:07:11;;;;;;;7.03;6.43;;;15.40;93.10;;;;;;5013372;28;20409;-68
2021/10/30 04:09:37;;;;;;;7.00;6.27;;;15.40;93.10;;;;;;5013920;28;20217;-67
2021/10/30 04:12:04;;;;;;;6.30;5.80;;;15.40;93.40;;;;;;5013406;28;20775;-68
2021/10/30 04:14:29;;;;;;;6.53;6.07;;;15.50;93.50;;;;;;5013651;28;20185;-68
2021/10/30 04:16:55;;;;;;;6.57;5.97;;;15.40;93.20;;;;;;5013123;28;20432;-68
2021/10/30 04:19:20;;;;;;;7.67;6.97;;;15.20;93.00;;;;;;5013774;28;20201;-67
2021/10/30 04:21:46;;;;;;;6.57;5.97;;;15.20;93.70;;;;;;5013700;28;20173;-67
2021/10/30 04:24:12;;;;;;;7.27;6.63;;;15.10;93.10;;;;;;5013051;28;20187;-67
2021/10/30 04:26:39;;;;;;;10.27;6.20;;;15.10;93.50;;;;;;5013575;28;20189;-68
2021/10/30 04:29:05;;;;;;;6.70;6.10;;;15.10;93.40;;;;;;5012966;28;20416;-68
2021/10/30 04:31:31;;;;;;;6.53;5.93;;;15.10;94.00;;;;;;5012363;28;20445;-67
2021/10/30 04:34:00;;;;;;;7.10;6.40;;;15.10;93.70;;;;;;5012534;28;20433;-68
2021/10/30 04:36:28;;;;;;;6.80;6.20;;;15.10;94.60;;;;;;5013533;28;20466;-68
2021/10/30 04:38:54;;;;;;;7.20;6.50;;;15.10;93.40;;;;;;5012557;28;20456;-68
2021/10/30 04:41:21;;;;;;;6.97;6.17;;;15.10;93.60;;;;;;5013123;28;20413;-68
2021/10/30 04:43:47;;;;;;;6.87;6.27;;;15.00;93.50;;;;;;4996044;28;20498;-68
2021/10/30 04:46:15;;;;;;;8.97;6.87;;;15.10;94.70;;;;;;5012640;28;20422;-68
2021/10/30 04:48:42;;;;;;;7.67;7.07;;;15.00;94.20;;;;;;5013255;28;20498;-68
2021/10/30 04:51:08;;;;;;;7.27;6.70;;;15.00;94.20;;;;;;4995402;28;20411;-68
2021/10/30 04:53:39;;;;;;;6.87;6.37;;;14.90;94.00;;;;;;5012999;28;20534;-68
2021/10/30 04:56:06;;;;;;;7.40;6.80;;;15.00;94.80;;;;;;5012611;28;20175;-67
2021/10/30 04:58:31;;;;;;;8.13;6.33;;;14.90;94.40;;;;;;5012756;28;20459;-68
2021/10/30 05:00:58;;;;;;;6.97;6.37;;;14.90;95.20;;;;;;4994783;28;20877;-69
2021/10/30 05:03:24;;;;;;;8.10;7.13;;;15.00;95.10;;;;;;5013004;28;20831;-68
2021/10/30 05:05:51;;;;;;;6.20;5.80;;;14.90;94.50;;;;;;5013020;28;20474;-68
2021/10/30 05:08:17;;;;;;;7.80;7.10;;;14.90;94.90;;;;;;5012432;28;20528;-67
2021/10/30 05:10:43;;;;;;;7.17;6.57;;;14.90;96.00;;;;;;5012857;28;20921;-69
2021/10/30 05:13:08;;;;;;;9.17;8.30;;;14.90;95.90;;;;;;4994436;28;20461;-68
2021/10/30 05:15:35;;;;;;;10.03;8.77;;;15.00;95.20;;;;;;5012056;28;20229;-68
2021/10/30 05:18:00;;;;;;;6.70;6.10;;;15.10;95.10;;;;;;5012220;28;20522;-68
2021/10/30 05:20:27;;;;;;;6.57;6.03;;;15.20;95.20;;;;;;5012223;28;20791;-67
2021/10/30 05:22:53;;;;;;;5.93;5.50;;;15.00;95.20;;;;;;5012832;28;20231;-68
2021/10/30 05:25:19;;;;;;;6.77;6.17;;;15.00;95.20;;;;;;5012506;28;20416;-68
2021/10/30 05:27:44;;;;;;;6.50;5.90;;;15.00;95.60;;;;;;5012058;28;20784;-68
2021/10/30 05:30:10;;;;;;;6.23;5.73;;;15.10;96.20;;;;;;5010726;28;20199;-67
2021/10/30 05:32:36;;;;;;;6.73;6.23;;;15.20;95.60;;;;;;5010964;28;20193;-68
2021/10/30 05:35:03;;;;;;;6.67;6.20;;;15.20;95.30;;;;;;5010779;28;20188;-67
2021/10/30 05:37:28;;;;;;;6.80;6.30;;;15.30;95.30;;;;;;5011143;28;20205;-68
2021/10/30 05:39:54;;;;;;;6.77;6.20;;;15.30;95.50;;;;;;5012070;28;20418;-67
2021/10/30 05:42:20;;;;;;;6.70;6.10;;;15.30;95.90;;;;;;5012391;28;20329;-67
2021/10/30 05:44:46;;;;;;;7.87;7.07;;;15.30;96.10;;;;;;4995090;28;20423;-67
2021/10/30 05:47:13;;;;;;;7.00;6.50;;;15.20;96.40;;;;;;5011975;28;20538;-67
2021/10/30 05:49:41;;;;;;;7.00;6.30;;;15.20;96.60;;;;;;5012570;28;20527;-67
2021/10/30 05:52:08;;;;;;;6.97;6.00;;;15.30;96.70;;;;;;5015956;28;20420;-67
2021/10/30 05:54:33;;;;;;;7.47;6.07;;;15.40;97.30;;;;;;5016603;28;20915;-67
2021/10/30 05:56:59;;;;;;;6.27;5.77;;;15.40;97.10;;;;;;5015549;28;20428;-67
2021/10/30 05:59:28;;;;;;;6.97;6.37;;;15.40;97.30;;;;;;5016534;28;20178;-67
2021/10/30 06:01:54;;;;;;;6.87;6.33;;;15.40;98.00;;;;;;5015411;28;20425;-68
2021/10/30 06:04:20;;;;;;;7.50;6.90;;;15.50;98.10;;;;;;5015575;28;20475;-67
2021/10/30 06:06:47;;;;;;;6.87;6.27;;;15.50;98.00;;;;;;5016246;28;20459;-67
2021/10/30 06:09:13;;;;;;;7.00;6.40;;;15.50;98.30;;;;;;5015483;28;20428;-67
2021/10/30 06:11:40;;;;;;;6.87;6.10;;;15.50;99.10;;;;;;5015756;28;20433;-67
2021/10/30 06:14:06;;;;;;;6.80;6.23;;;15.50;98.90;;;;;;5015512;28;20409;-68
2021/10/30 06:16:35;;;;;;;8.63;7.83;;;15.50;99.00;;;;;;5015821;28;20429;-67
2021/10/30 06:19:01;;;;;;;8.23;7.47;;;15.50;99.70;;;;;;5014906;28;20456;-67
2021/10/30 06:21:27;;;;;;;9.13;7.77;;;15.50;99.60;;;;;;5015758;28;20419;-67
2021/10/30 06:23:54;;;;;;;8.30;6.87;;;15.40;99.80;;;;;;5016017;28;20192;-67
2021/10/30 06:26:20;;;;;;;7.73;7.03;;;15.20;98.70;;;;;;5014985;28;20890;-68
2021/10/30 06:28:47;;;;;;;6.67;6.20;;;15.30;99.00;;;;;;5015382;28;20431;-67
2021/10/30 06:31:14;;;;;;;6.70;6.20;;;15.20;99.10;;;;;;5014912;28;20561;-67
2021/10/30 06:33:41;;;;;;;6.97;6.37;;;15.20;99.00;;;;;;5014081;28;20753;-68
2021/10/30 06:36:07;;;;;;;6.70;6.10;;;15.30;98.80;;;;;;5013719;28;20420;-68
2021/10/30 06:38:34;;;;;;;6.40;5.80;;;15.30;98.30;;;;;;5014264;28;20456;-67
2021/10/30 06:41:01;;;;;;;7.03;6.43;;;15.10;97.90;;;;;;5012702;28;20772;-68
2021/10/30 06:43:31;;;;;;;6.60;6.00;;;15.10;98.10;;;;;;5010352;28;20461;-68
2021/10/30 06:45:57;;;;;;;6.00;5.53;;;15.20;98.10;;;;;;5012111;28;20451;-68
2021/10/30 06:48:24;;;;;;;7.10;6.20;;;15.10;97.90;;;;;;5012830;28;20502;-68
2021/10/30 06:50:50;;;;;;;6.87;6.27;;;15.10;98.10;;;;;;5013902;28;20478;-69
2021/10/30 06:53:15;;;;;;;6.70;6.10;;;15.10;98.60;;;;;;5012911;28;20447;-67
2021/10/30 06:55:41;;;;;;;8.50;6.70;;;15.20;98.20;;;;;;5013352;28;20419;-68
2021/10/30 06:58:07;;;;;;;7.00;6.40;;;15.30;98.10;;;;;;4997598;28;20249;-68
2021/10/30 07:00:33;;;;;;;6.07;5.50;;;15.30;98.10;;;;;;5013948;28;20448;-67
2021/10/30 07:02:59;;;;;;;6.07;5.57;;;15.30;98.10;;;;;;5013971;28;20256;-75
2021/10/30 07:05:25;;;;;;;7.00;6.47;;;15.30;98.30;;;;;;5014786;28;20183;-68
2021/10/30 07:07:51;;;;;;;6.53;6.03;;;15.20;98.50;;;;;;4997303;28;20427;-68
2021/10/30 07:10:17;;;;;;;6.20;5.70;;;15.30;98.80;;;;;;5014384;28;20408;-68
2021/10/30 07:12:43;;;;;;;6.60;6.10;;;15.30;99.30;;;;;;5014637;28;20779;-70
2021/10/30 07:15:11;;;;;;;6.30;5.80;;;15.20;99.30;;;;;;5014093;28;20481;-68
2021/10/30 07:17:38;;;;;;;6.40;5.40;;;15.20;99.10;;;;;;5016552;28;20464;-67
2021/10/30 07:20:06;;;;;;;6.43;5.83;;;15.20;99.10;;;;;;5013726;28;20415;-69
2021/10/30 07:22:39;;;;;;;6.50;6.00;;;15.20;99.20;;;;;;4999337;28;20409;-68
2021/10/30 07:25:05;;;;;;;96.60;72.93;;;15.20;99.30;;;;;;5014647;28;20403;-68
2021/10/30 07:27:31;;;;;;;92.50;66.87;;;15.30;99.60;;;;;;5013835;28;20971;-68
2021/10/30 07:29:57;;;;;;;35.63;26.33;;;15.30;99.70;;;;;;5013924;28;20625;-68
2021/10/30 07:32:23;;;;;;;53.10;36.70;;;15.30;99.40;;;;;;5013692;28;20182;-68
2021/10/30 07:34:48;;;;;;;35.97;26.03;;;15.40;99.30;;;;;;5013930;28;20567;-68
2021/10/30 07:37:14;;;;;;;8.37;7.57;;;15.40;99.80;;;;;;5013468;28;20507;-68
2021/10/30 07:39:40;;;;;;;7.47;6.60;;;15.40;99.80;;;;;;5014337;28;20248;-68
2021/10/30 07:42:06;;;;;;;6.87;6.17;;;15.50;99.60;;;;;;5013076;28;20348;-69
2021/10/30 07:44:33;;;;;;;6.87;6.37;;;15.40;99.00;;;;;;5013989;28;20189;-68
2021/10/30 07:46:59;;;;;;;7.83;6.80;;;15.30;99.40;;;;;;5014167;28;20427;-68
2021/10/30 07:49:24;;;;;;;7.03;6.43;;;15.30;99.90;;;;;;5013821;28;20501;-69
2021/10/30 07:51:50;;;;;;;6.70;6.20;;;15.30;99.80;;;;;;5014213;28;20596;-69
2021/10/30 07:54:17;;;;;;;8.03;6.57;;;15.30;99.90;;;;;;5013214;28;20180;-69
2021/10/30 07:56:43;;;;;;;6.37;5.87;;;15.30;99.50;;;;;;5013677;28;20258;-70
2021/10/30 07:59:09;;;;;;;6.97;6.27;;;15.30;99.50;;;;;;5012966;28;20996;-69
2021/10/30 08:01:35;;;;;;;6.70;6.10;;;15.30;99.60;;;;;;5013837;28;20496;-69
2021/10/30 08:04:02;;;;;;;7.37;6.77;;;15.30;99.70;;;;;;5013650;28;20202;-68
2021/10/30 08:06:28;;;;;;;7.60;7.00;;;15.30;99.50;;;;;;5013690;28;20767;-68
2021/10/30 08:08:53;;;;;;;6.63;6.13;;;15.30;99.90;;;;;;5013519;28;20423;-66
2021/10/30 08:11:19;;;;;;;6.83;6.33;;;15.30;99.90;;;;;;5013325;28;20216;-71
2021/10/30 08:13:45;;;;;;;6.60;6.10;;;15.30;99.90;;;;;;5013284;28;20588;-70
2021/10/30 08:16:10;;;;;;;6.87;6.27;;;15.50;99.90;;;;;;5013309;28;20194;-70
2021/10/30 08:18:36;;;;;;;7.10;6.50;;;15.70;99.90;;;;;;5013653;28;20206;-69
2021/10/30 08:21:02;;;;;;;8.13;7.30;;;15.80;99.90;;;;;;5013333;28;20188;-69
2021/10/30 08:23:28;;;;;;;7.00;6.30;;;16.00;99.70;;;;;;5013160;28;20186;-70
2021/10/30 08:25:53;;;;;;;7.40;6.80;;;16.00;99.00;;;;;;5013944;28;20236;-69
2021/10/30 08:28:19;;;;;;;7.20;6.33;;;16.10;99.60;;;;;;5013005;28;20184;-69
2021/10/30 08:30:46;;;;;;;7.17;6.67;;;16.30;99.20;;;;;;5013050;28;20185;-69
2021/10/30 08:33:11;;;;;;;693.57;497.77;;;16.50;98.70;;;;;;4978334;28;20414;-66
2021/10/30 08:35:37;;;;;;;39.47;30.60;;;16.60;99.30;;;;;;5012831;28;20513;-67
2021/10/30 08:38:07;;;;;;;7.67;7.00;;;16.60;98.50;;;;;;5013387;28;20206;-66
2021/10/30 08:40:33;;;;;;;6.23;5.73;;;16.40;96.90;;;;;;5013470;28;20202;-68
2021/10/30 08:42:58;;;;;;;6.53;5.93;;;16.20;97.60;;;;;;5013519;28;20454;-68
2021/10/30 08:45:28;;;;;;;6.60;6.07;;;16.10;97.40;;;;;;5012527;28;20569;-68
2021/10/30 08:47:54;;;;;;;8.47;6.40;;;16.10;97.50;;;;;;5012806;28;20182;-67
2021/10/30 08:50:20;;;;;;;6.40;5.80;;;16.00;97.60;;;;;;4994896;28;20779;-68
2021/10/30 08:52:46;;;;;;;6.13;5.73;;;16.00;97.70;;;;;;5013002;28;20405;-67
2021/10/30 08:55:12;;;;;;;6.03;5.43;;;15.80;97.10;;;;;;5012247;28;20549;-68
2021/10/30 08:57:38;;;;;;;6.20;5.63;;;15.70;97.00;;;;;;5012837;28;20218;-68
2021/10/30 09:00:36;;;;;;;6.43;5.93;;;15.70;97.80;;;;;;5012822;28;20182;-67
2021/10/30 09:03:05;;;;;;;6.77;5.43;;;15.60;97.50;;;;;;4997211;28;20429;-67
2021/10/30 09:05:32;;;;;;;6.00;5.50;;;15.60;97.70;;;;;;5007680;28;20456;-68
2021/10/30 09:08:04;;;;;;;6.00;5.50;;;15.70;97.90;;;;;;5012184;28;20504;-67
2021/10/30 09:10:35;;;;;;;5.70;5.20;;;15.70;98.00;;;;;;5009443;28;20409;-68
2021/10/30 09:13:06;;;;;;;5.70;5.10;;;15.70;97.80;;;;;;5012142;28;20435;-68
2021/10/30 09:15:41;;;;;;;5.67;5.27;;;15.60;97.70;;;;;;5012114;28;20893;-68
2021/10/30 09:18:28;;;;;;;5.83;5.33;;;15.60;98.10;;;;;;5011048;28;20484;-74
2021/10/30 09:20:56;;;;;;;6.10;5.60;;;15.60;98.30;;;;;;5006445;28;20421;-68
2021/10/30 09:23:29;;;;;;;6.27;5.77;;;15.60;98.80;;;;;;5010632;28;20431;-69
2021/10/30 09:26:02;;;;;;;6.20;5.57;;;15.70;99.10;;;;;;5011037;28;20445;-68
2021/10/30 09:28:32;;;;;;;6.20;5.70;;;15.60;98.60;;;;;;5010610;28;20504;-66
2021/10/30 09:31:02;;;;;;;6.23;5.63;;;15.50;97.40;;;;;;5011237;28;20418;-68
2021/10/30 09:33:30;;;;;;;6.70;6.10;;;15.40;97.90;;;;;;5010924;28;20432;-67
2021/10/30 09:36:07;;;;;;;5.83;5.43;;;15.40;97.70;;;;;;5011595;28;20917;-66
2021/10/30 09:38:34;;;;;;;5.13;4.73;;;15.30;98.10;;;;;;5012377;28;20932;-69
2021/10/30 09:41:02;;;;;;;5.57;5.17;;;15.40;98.10;;;;;;5011879;28;20477;-67
2021/10/30 09:43:30;;;;;;;6.40;5.80;;;15.50;97.80;;;;;;5012173;28;20468;-67
2021/10/30 09:46:04;;;;;;;5.83;5.40;;;15.60;97.30;;;;;;5012342;28;20903;-66
2021/10/30 09:48:32;;;;;;;7.30;6.60;;;15.60;97.50;;;;;;5012045;28;20401;-66
2021/10/30 09:51:02;;;;;;;7.60;6.30;;;15.60;96.60;;;;;;4995170;28;20457;-66
2021/10/30 09:53:39;;;;;;;106.03;67.13;;;15.50;97.50;;;;;;5011826;28;20421;-66
2021/10/30 09:56:12;;;;;;;7.93;6.40;;;15.50;97.30;;;;;;5012580;28;20393;-66
2021/10/30 09:58:43;;;;;;;6.27;5.77;;;15.50;97.20;;;;;;5012324;28;20457;-67
2021/10/30 10:01:13;;;;;;;6.00;5.50;;;15.60;97.40;;;;;;5012224;28;20542;-67
2021/10/30 10:03:40;;;;;;;6.40;5.23;;;15.70;97.40;;;;;;5012158;28;20415;-72
2021/10/30 10:06:10;;;;;;;5.90;5.37;;;15.60;96.90;;;;;;5012558;28;20491;-72
2021/10/30 10:08:40;;;;;;;6.53;5.87;;;15.50;96.70;;;;;;4994775;28;20925;-68
2021/10/30 10:11:08;;;;;;;5.57;5.17;;;15.60;96.50;;;;;;4994660;28;20429;-68
2021/10/30 10:13:36;;;;;;;8.87;7.07;;;15.50;96.40;;;;;;5012044;28;20417;-71
2021/10/30 10:16:04;;;;;;;19.40;17.23;;;15.50;99.30;;;;;;5012069;28;20967;-71
2021/10/30 10:18:30;;;;;;;15.10;11.97;;;15.80;99.90;;;;;;5011393;28;20531;-71
2021/10/30 10:20:56;;;;;;;25.70;18.03;;;16.00;98.20;;;;;;5012201;28;20411;-71
2021/10/30 10:23:22;;;;;;;7.93;7.13;;;16.00;99.90;;;;;;5011705;28;20509;-71
2021/10/30 10:25:55;;;;;;;32.57;26.23;;;16.00;96.50;;;;;;5012173;28;20504;-70
2021/10/30 10:28:36;;;;;;;21.07;15.70;;;15.90;99.70;;;;;;5011738;28;20941;-72
2021/10/30 10:31:13;;;;;;;6.60;6.00;;;16.00;96.90;;;;;;5011442;28;20397;-71
2021/10/30 10:33:40;;;;;;;13.27;11.13;;;16.00;97.20;;;;;;5012259;28;20407;-71
2021/10/30 10:36:20;;;;;;;5.30;4.90;;;16.00;98.10;;;;;;5012771;28;20419;-71
2021/10/30 10:38:58;;;;;;;14.53;11.03;;;16.00;95.60;;;;;;5015677;28;20499;-71
2021/10/30 10:41:51;;;;;;;5.80;5.30;;;15.90;97.40;;;;;;4997083;28;20427;-71
2021/10/30 10:44:25;;;;;;;5.73;5.23;;;15.70;95.50;;;;;;5006549;28;20463;-71
2021/10/30 10:46:54;;;;;;;5.60;5.13;;;15.50;96.60;;;;;;5015512;28;20911;-71
2021/10/30 10:49:47;;;;;;;6.90;5.80;;;15.80;97.80;;;;;;5014959;28;20417;-71
2021/10/30 10:52:21;;;;;;;5.87;5.33;;;15.50;95.60;;;;;;4997477;28;20413;-72
2021/10/30 10:54:55;;;;;;;6.00;5.50;;;15.40;96.40;;;;;;5015497;28;20409;-71
2021/10/30 10:57:31;;;;;;;6.67;5.80;;;15.40;97.30;;;;;;5014394;28;20803;-71
2021/10/30 11:00:25;;;;;;;6.47;5.97;;;15.40;98.00;;;;;;5015446;28;20886;-71
2021/10/30 11:02:52;;;;;;;6.17;5.67;;;15.50;98.30;;;;;;4997766;28;20408;-71
2021/10/30 11:05:20;;;;;;;6.87;6.37;;;15.60;98.00;;;;;;5014508;28;20417;-72
2021/10/30 11:07:49;;;;;;;5.83;5.43;;;15.80;98.10;;;;;;5015128;28;20908;-71
2021/10/30 11:10:21;;;;;;;6.47;5.87;;;15.90;98.20;;;;;;5014729;28;20414;-72
2021/10/30 11:13:01;;;;;;;6.00;5.50;;;15.60;98.00;;;;;;4997578;28;20894;-71
2021/10/30 11:15:46;;;;;;;6.47;5.97;;;15.40;99.00;;;;;;5014471;28;20891;-71
2021/10/30 11:18:30;;;;;;;5.90;5.50;;;15.30;98.90;;;;;;5014733;28;20804;-82
2021/10/30 11:21:12;;;;;;;6.07;5.50;;;15.30;99.90;;;;;;5014911;28;20979;-71
2021/10/30 11:23:52;;;;;;;6.90;6.23;;;15.10;98.70;;;;;;5014379;28;20413;-71
2021/10/30 11:26:28;;;;;;;6.97;6.30;;;15.10;99.90;;;;;;5013355;28;20416;-68
2021/10/30 11:29:06;;;;;;;8.60;5.90;;;15.10;99.90;;;;;;4996719;28;20431;-68
2021/10/30 11:31:33;;;;;;;7.67;6.97;;;15.10;99.80;;;;;;5012090;28;20411;-68
2021/10/30 11:34:00;;;;;;;8.17;7.37;;;15.10;99.90;;;;;;4996767;28;20460;-68
2021/10/30 11:36:27;;;;;;;9.73;7.97;;;15.10;99.90;;;;;;5012971;28;20411;-68
2021/10/30 11:38:55;;;;;;;7.30;6.70;;;15.10;99.90;;;;;;5013982;28;20460;-68
2021/10/30 11:41:26;;;;;;;6.60;5.90;;;15.00;99.90;;;;;;5012576;28;20455;-68
2021/10/30 11:43:58;;;;;;;7.33;6.47;;;14.90;99.90;;;;;;4999170;28;20466;-68
2021/10/30 11:46:24;;;;;;;7.53;6.70;;;14.90;99.90;;;;;;5013544;28;20446;-68
2021/10/30 11:48:55;;;;;;;8.23;7.43;;;14.70;99.90;;;;;;4998714;28;20431;-68
2021/10/30 11:51:41;;;;;;;24.80;15.93;;;14.80;99.90;;;;;;5029958;28;20244;-69
2021/10/30 11:54:09;;;;;;;8.40;7.50;;;14.80;99.90;;;;;;5020299;28;20425;-69
2021/10/30 11:56:34;;;;;;;7.10;6.50;;;14.80;99.90;;;;;;5012542;28;20524;-68
2021/10/30 11:59:06;;;;;;;6.47;5.87;;;14.80;99.90;;;;;;5013079;28;20500;-69
2021/10/30 12:01:39;;;;;;;7.20;6.40;;;14.70;99.90;;;;;;5012500;28;20253;-69
2021/10/30 12:04:12;;;;;;;6.50;5.87;;;14.80;99.90;;;;;;5012951;28;20419;-69
2021/10/30 12:06:56;;;;;;;7.00;6.30;;;14.50;99.90;;;;;;5010254;28;20421;-68
2021/10/30 12:09:45;;;;;;;6.07;5.57;;;14.70;99.90;;;;;;5013136;28;20426;-70
2021/10/30 12:12:17;;;;;;;6.83;6.23;;;14.70;99.90;;;;;;5009240;28;20438;-68
2021/10/30 12:14:48;;;;;;;13.80;6.97;;;14.90;99.90;;;;;;5013041;28;20436;-68
2021/10/30 12:17:19;;;;;;;5.80;5.30;;;14.70;99.90;;;;;;5012237;28;20931;-68
2021/10/30 12:19:46;;;;;;;6.00;5.60;;;14.80;99.90;;;;;;5013728;28;20503;-68
2021/10/30 12:22:19;;;;;;;5.80;5.33;;;14.80;99.90;;;;;;5013534;28;20757;-68
2021/10/30 12:24:45;;;;;;;5.50;5.10;;;14.80;99.90;;;;;;5013683;28;20490;-67
2021/10/30 12:27:11;;;;;;;8.73;5.80;;;14.90;99.90;;;;;;5013445;28;20913;-67
2021/10/30 12:29:42;;;;;;;6.33;5.67;;;15.00;99.90;;;;;;5013057;28;20521;-67
2021/10/30 12:32:13;;;;;;;6.70;6.10;;;14.80;99.90;;;;;;5013608;28;20412;-68
2021/10/30 12:35:00;;;;;;;6.10;5.50;;;14.70;99.90;;;;;;5013021;28;20402;-68
2021/10/30 12:37:28;;;;;;;6.27;5.67;;;14.70;99.90;;;;;;5012945;28;20406;-68
2021/10/30 12:39:59;;;;;;;6.17;5.57;;;14.80;99.90;;;;;;4995697;28;20455;-68
2021/10/30 12:42:25;;;;;;;6.60;6.00;;;14.80;99.90;;;;;;5012815;28;20450;-68
2021/10/30 12:44:52;;;;;;;6.63;5.50;;;14.90;99.90;;;;;;5013328;28;20416;-68
2021/10/30 12:47:21;;;;;;;6.73;6.00;;;14.90;99.90;;;;;;5012787;28;20422;-72
2021/10/30 12:49:59;;;;;;;5.60;5.10;;;14.80;99.90;;;;;;5013392;28;20603;-68